sensor_id;sensor_type;location;lat;lon;timestamp;P1;durP1;ratioP1;P2;durP2;ratioP2
7377;SDS011;3730;50.856;12.776;2023-02-11T00:02:01;35.70;;;22.40;;
7377;SDS011;3730;50.856;12.776;2023-02-11T00:04:28;40.87;;;23.60;;
7377;SDS011;3730;50.856;12.776;2023-02-11T00:06:54;37.13;;;22.60;;
7377;SDS011;3730;50.856;12.776;2023-02-11T00:09:20;38.33;;;23.27;;
7377;SDS011;3730;50.856;12.776;2023-02-11T00:11:45;41.40;;;25.23;;
7377;SDS011;3730;50.856;12.776;2023-02-11T00:14:11;40.97;;;23.73;;
7377;SDS011;3730;50.856;12.776;2023-02-11T00:16:36;43.27;;;24.97;;
7377;SDS011;3730;50.856;12.776;2023-02-11T00:19:03;39.83;;;24.13;;
7377;SDS011;3730;50.856;12.776;2023-02-11T00:21:30;42.33;;;24.50;;
7377;SDS011;3730;50.856;12.776;2023-02-11T00:23:56;43.67;;;24.63;;
7377;SDS011;3730;50.856;12.776;2023-02-11T00:26:27;39.63;;;24.70;;
7377;SDS011;3730;50.856;12.776;2023-02-11T00:28:55;45.70;;;24.00;;
7377;SDS011;3730;50.856;12.776;2023-02-11T00:31:21;45.20;;;26.00;;
7377;SDS011;3730;50.856;12.776;2023-02-11T00:33:48;40.80;;;25.30;;
7377;SDS011;3730;50.856;12.776;2023-02-11T00:36:15;36.90;;;24.83;;
7377;SDS011;3730;50.856;12.776;2023-02-11T00:38:43;43.33;;;25.57;;
7377;SDS011;3730;50.856;12.776;2023-02-11T00:41:09;40.17;;;25.73;;
7377;SDS011;3730;50.856;12.776;2023-02-11T00:43:35;40.83;;;25.73;;
7377;SDS011;3730;50.856;12.776;2023-02-11T00:46:01;40.63;;;25.87;;
7377;SDS011;3730;50.856;12.776;2023-02-11T00:48:27;38.87;;;24.63;;
7377;SDS011;3730;50.856;12.776;2023-02-11T00:50:52;40.50;;;24.77;;
7377;SDS011;3730;50.856;12.776;2023-02-11T00:53:18;41.00;;;25.43;;
7377;SDS011;3730;50.856;12.776;2023-02-11T00:55:44;38.37;;;25.67;;
7377;SDS011;3730;50.856;12.776;2023-02-11T00:58:09;42.43;;;26.07;;
7377;SDS011;3730;50.856;12.776;2023-02-11T01:00:35;40.43;;;25.10;;
7377;SDS011;3730;50.856;12.776;2023-02-11T01:03:01;40.87;;;25.17;;
7377;SDS011;3730;50.856;12.776;2023-02-11T01:05:27;38.87;;;24.13;;
7377;SDS011;3730;50.856;12.776;2023-02-11T01:07:53;44.53;;;26.67;;
7377;SDS011;3730;50.856;12.776;2023-02-11T01:10:19;40.13;;;24.80;;
7377;SDS011;3730;50.856;12.776;2023-02-11T01:12:45;36.13;;;23.40;;
7377;SDS011;3730;50.856;12.776;2023-02-11T01:15:12;40.10;;;24.43;;
7377;SDS011;3730;50.856;12.776;2023-02-11T01:17:38;40.00;;;24.00;;
7377;SDS011;3730;50.856;12.776;2023-02-11T01:20:05;41.40;;;24.87;;
7377;SDS011;3730;50.856;12.776;2023-02-11T01:22:32;38.17;;;24.03;;
7377;SDS011;3730;50.856;12.776;2023-02-11T01:25:03;39.23;;;24.77;;
7377;SDS011;3730;50.856;12.776;2023-02-11T01:27:30;39.20;;;24.47;;
7377;SDS011;3730;50.856;12.776;2023-02-11T01:29:56;36.57;;;21.87;;
7377;SDS011;3730;50.856;12.776;2023-02-11T01:32:22;37.30;;;23.87;;
7377;SDS011;3730;50.856;12.776;2023-02-11T01:34:48;39.23;;;23.10;;
7377;SDS011;3730;50.856;12.776;2023-02-11T01:37:14;38.70;;;23.10;;
7377;SDS011;3730;50.856;12.776;2023-02-11T01:39:40;38.33;;;23.17;;
7377;SDS011;3730;50.856;12.776;2023-02-11T01:42:06;39.30;;;23.40;;
7377;SDS011;3730;50.856;12.776;2023-02-11T01:44:34;39.87;;;23.87;;
7377;SDS011;3730;50.856;12.776;2023-02-11T01:47:00;38.17;;;24.13;;
7377;SDS011;3730;50.856;12.776;2023-02-11T01:49:32;36.00;;;22.43;;
7377;SDS011;3730;50.856;12.776;2023-02-11T01:54:28;39.50;;;23.53;;
7377;SDS011;3730;50.856;12.776;2023-02-11T01:57:14;36.70;;;22.73;;
7377;SDS011;3730;50.856;12.776;2023-02-11T02:00:04;36.70;;;22.67;;
7377;SDS011;3730;50.856;12.776;2023-02-11T02:02:36;39.10;;;23.93;;
7377;SDS011;3730;50.856;12.776;2023-02-11T02:05:07;38.00;;;23.83;;
7377;SDS011;3730;50.856;12.776;2023-02-11T02:07:35;37.30;;;23.53;;
7377;SDS011;3730;50.856;12.776;2023-02-11T02:10:04;36.30;;;22.83;;
7377;SDS011;3730;50.856;12.776;2023-02-11T02:12:32;36.17;;;23.70;;
7377;SDS011;3730;50.856;12.776;2023-02-11T02:15:10;38.07;;;23.93;;
7377;SDS011;3730;50.856;12.776;2023-02-11T02:17:37;35.10;;;22.43;;
7377;SDS011;3730;50.856;12.776;2023-02-11T02:20:18;37.63;;;23.40;;
7377;SDS011;3730;50.856;12.776;2023-02-11T02:25:27;36.13;;;23.03;;
7377;SDS011;3730;50.856;12.776;2023-02-11T02:38:15;37.80;;;24.17;;
7377;SDS011;3730;50.856;12.776;2023-02-11T02:43:12;39.90;;;22.77;;
7377;SDS011;3730;50.856;12.776;2023-02-11T02:45:39;33.27;;;21.63;;
7377;SDS011;3730;50.856;12.776;2023-02-11T02:48:05;35.37;;;21.93;;
7377;SDS011;3730;50.856;12.776;2023-02-11T02:50:34;36.20;;;21.70;;
7377;SDS011;3730;50.856;12.776;2023-02-11T02:55:30;39.50;;;24.20;;
7377;SDS011;3730;50.856;12.776;2023-02-11T03:03:33;38.20;;;22.57;;
7377;SDS011;3730;50.856;12.776;2023-02-11T03:06:02;36.60;;;22.90;;
7377;SDS011;3730;50.856;12.776;2023-02-11T03:08:31;34.23;;;21.70;;
7377;SDS011;3730;50.856;12.776;2023-02-11T03:10:59;38.80;;;22.43;;
7377;SDS011;3730;50.856;12.776;2023-02-11T03:13:27;32.83;;;21.23;;
7377;SDS011;3730;50.856;12.776;2023-02-11T03:15:57;33.63;;;21.83;;
7377;SDS011;3730;50.856;12.776;2023-02-11T03:18:26;34.73;;;22.50;;
7377;SDS011;3730;50.856;12.776;2023-02-11T03:20:52;34.60;;;21.57;;
7377;SDS011;3730;50.856;12.776;2023-02-11T03:25:49;38.77;;;23.23;;
7377;SDS011;3730;50.856;12.776;2023-02-11T03:28:23;36.07;;;22.53;;
7377;SDS011;3730;50.856;12.776;2023-02-11T03:31:08;36.60;;;22.73;;
7377;SDS011;3730;50.856;12.776;2023-02-11T03:36:12;34.30;;;21.93;;
7377;SDS011;3730;50.856;12.776;2023-02-11T03:38:42;38.97;;;23.30;;
7377;SDS011;3730;50.856;12.776;2023-02-11T03:41:09;37.33;;;23.93;;
7377;SDS011;3730;50.856;12.776;2023-02-11T03:43:43;34.87;;;22.13;;
7377;SDS011;3730;50.856;12.776;2023-02-11T03:46:09;39.60;;;23.37;;
7377;SDS011;3730;50.856;12.776;2023-02-11T03:48:37;34.57;;;21.97;;
7377;SDS011;3730;50.856;12.776;2023-02-11T03:51:05;35.20;;;23.10;;
7377;SDS011;3730;50.856;12.776;2023-02-11T03:53:32;36.33;;;23.33;;
7377;SDS011;3730;50.856;12.776;2023-02-11T03:55:59;33.13;;;22.43;;
7377;SDS011;3730;50.856;12.776;2023-02-11T03:58:26;33.87;;;22.27;;
7377;SDS011;3730;50.856;12.776;2023-02-11T04:00:52;36.70;;;22.47;;
7377;SDS011;3730;50.856;12.776;2023-02-11T04:03:18;34.70;;;23.17;;
7377;SDS011;3730;50.856;12.776;2023-02-11T04:05:44;35.40;;;23.20;;
7377;SDS011;3730;50.856;12.776;2023-02-11T04:08:10;37.37;;;24.07;;
7377;SDS011;3730;50.856;12.776;2023-02-11T04:10:36;40.13;;;24.90;;
7377;SDS011;3730;50.856;12.776;2023-02-11T04:13:02;38.83;;;24.77;;
7377;SDS011;3730;50.856;12.776;2023-02-11T04:15:28;37.33;;;23.40;;
7377;SDS011;3730;50.856;12.776;2023-02-11T04:17:54;40.63;;;24.73;;
7377;SDS011;3730;50.856;12.776;2023-02-11T04:20:20;37.57;;;24.10;;
7377;SDS011;3730;50.856;12.776;2023-02-11T04:22:46;37.13;;;23.77;;
7377;SDS011;3730;50.856;12.776;2023-02-11T04:25:12;36.70;;;22.83;;
7377;SDS011;3730;50.856;12.776;2023-02-11T04:27:38;37.97;;;23.60;;
7377;SDS011;3730;50.856;12.776;2023-02-11T04:30:04;40.57;;;24.13;;
7377;SDS011;3730;50.856;12.776;2023-02-11T04:32:30;37.77;;;22.53;;
7377;SDS011;3730;50.856;12.776;2023-02-11T04:34:56;35.87;;;24.50;;
7377;SDS011;3730;50.856;12.776;2023-02-11T04:37:22;39.43;;;24.40;;
7377;SDS011;3730;50.856;12.776;2023-02-11T04:39:48;36.47;;;23.53;;
7377;SDS011;3730;50.856;12.776;2023-02-11T04:42:14;37.67;;;22.73;;
7377;SDS011;3730;50.856;12.776;2023-02-11T04:44:40;34.80;;;23.37;;
7377;SDS011;3730;50.856;12.776;2023-02-11T04:47:06;34.47;;;21.73;;
7377;SDS011;3730;50.856;12.776;2023-02-11T04:49:32;36.37;;;22.60;;
7377;SDS011;3730;50.856;12.776;2023-02-11T04:51:58;35.07;;;22.63;;
7377;SDS011;3730;50.856;12.776;2023-02-11T04:54:24;39.60;;;23.67;;
7377;SDS011;3730;50.856;12.776;2023-02-11T04:56:50;33.37;;;22.60;;
7377;SDS011;3730;50.856;12.776;2023-02-11T04:59:16;38.43;;;23.80;;
7377;SDS011;3730;50.856;12.776;2023-02-11T05:01:42;34.97;;;21.80;;
7377;SDS011;3730;50.856;12.776;2023-02-11T05:04:08;37.40;;;23.30;;
7377;SDS011;3730;50.856;12.776;2023-02-11T05:06:34;35.87;;;22.37;;
7377;SDS011;3730;50.856;12.776;2023-02-11T05:09:00;34.43;;;23.17;;
7377;SDS011;3730;50.856;12.776;2023-02-11T05:11:26;35.70;;;21.83;;
7377;SDS011;3730;50.856;12.776;2023-02-11T05:13:52;34.63;;;22.53;;
7377;SDS011;3730;50.856;12.776;2023-02-11T05:16:18;35.73;;;23.57;;
7377;SDS011;3730;50.856;12.776;2023-02-11T05:18:44;34.83;;;22.80;;
7377;SDS011;3730;50.856;12.776;2023-02-11T05:21:12;34.70;;;23.03;;
7377;SDS011;3730;50.856;12.776;2023-02-11T05:23:38;35.50;;;23.03;;
7377;SDS011;3730;50.856;12.776;2023-02-11T05:26:05;35.63;;;22.33;;
7377;SDS011;3730;50.856;12.776;2023-02-11T05:28:31;36.67;;;22.83;;
7377;SDS011;3730;50.856;12.776;2023-02-11T05:30:57;36.13;;;23.27;;
7377;SDS011;3730;50.856;12.776;2023-02-11T05:33:23;39.30;;;23.17;;
7377;SDS011;3730;50.856;12.776;2023-02-11T05:35:49;37.17;;;23.30;;
7377;SDS011;3730;50.856;12.776;2023-02-11T05:38:16;37.10;;;22.70;;
7377;SDS011;3730;50.856;12.776;2023-02-11T05:40:42;38.70;;;23.10;;
7377;SDS011;3730;50.856;12.776;2023-02-11T05:43:08;36.00;;;22.70;;
7377;SDS011;3730;50.856;12.776;2023-02-11T05:45:34;33.53;;;22.00;;
7377;SDS011;3730;50.856;12.776;2023-02-11T05:48:00;34.77;;;22.40;;
7377;SDS011;3730;50.856;12.776;2023-02-11T05:50:26;35.30;;;22.60;;
7377;SDS011;3730;50.856;12.776;2023-02-11T05:52:52;35.00;;;22.20;;
7377;SDS011;3730;50.856;12.776;2023-02-11T05:55:18;36.93;;;22.63;;
7377;SDS011;3730;50.856;12.776;2023-02-11T05:57:44;32.73;;;22.30;;
7377;SDS011;3730;50.856;12.776;2023-02-11T06:00:10;36.40;;;22.87;;
7377;SDS011;3730;50.856;12.776;2023-02-11T06:02:36;36.00;;;22.33;;
7377;SDS011;3730;50.856;12.776;2023-02-11T06:05:02;35.67;;;23.43;;
7377;SDS011;3730;50.856;12.776;2023-02-11T06:07:28;38.13;;;23.37;;
7377;SDS011;3730;50.856;12.776;2023-02-11T06:09:54;36.43;;;23.33;;
7377;SDS011;3730;50.856;12.776;2023-02-11T06:12:21;38.53;;;23.87;;
7377;SDS011;3730;50.856;12.776;2023-02-11T06:14:47;37.30;;;23.67;;
7377;SDS011;3730;50.856;12.776;2023-02-11T06:17:13;37.47;;;23.77;;
7377;SDS011;3730;50.856;12.776;2023-02-11T06:19:39;39.33;;;24.00;;
7377;SDS011;3730;50.856;12.776;2023-02-11T06:22:05;37.80;;;23.67;;
7377;SDS011;3730;50.856;12.776;2023-02-11T06:24:31;36.57;;;22.70;;
7377;SDS011;3730;50.856;12.776;2023-02-11T06:26:57;37.93;;;22.20;;
7377;SDS011;3730;50.856;12.776;2023-02-11T06:29:23;38.23;;;23.40;;
7377;SDS011;3730;50.856;12.776;2023-02-11T06:31:49;37.67;;;22.67;;
7377;SDS011;3730;50.856;12.776;2023-02-11T06:34:15;37.93;;;23.83;;
7377;SDS011;3730;50.856;12.776;2023-02-11T06:36:41;36.03;;;22.87;;
7377;SDS011;3730;50.856;12.776;2023-02-11T06:39:08;38.93;;;23.60;;
7377;SDS011;3730;50.856;12.776;2023-02-11T06:41:34;34.47;;;21.93;;
7377;SDS011;3730;50.856;12.776;2023-02-11T06:44:00;39.50;;;23.60;;
7377;SDS011;3730;50.856;12.776;2023-02-11T06:46:26;38.80;;;24.23;;
7377;SDS011;3730;50.856;12.776;2023-02-11T06:48:52;38.63;;;23.93;;
7377;SDS011;3730;50.856;12.776;2023-02-11T06:51:17;36.70;;;23.57;;
7377;SDS011;3730;50.856;12.776;2023-02-11T06:53:44;36.93;;;24.00;;
7377;SDS011;3730;50.856;12.776;2023-02-11T06:56:12;36.00;;;22.77;;
7377;SDS011;3730;50.856;12.776;2023-02-11T06:58:38;37.70;;;24.00;;
7377;SDS011;3730;50.856;12.776;2023-02-11T07:01:05;40.30;;;24.30;;
7377;SDS011;3730;50.856;12.776;2023-02-11T07:03:32;35.83;;;22.90;;
7377;SDS011;3730;50.856;12.776;2023-02-11T07:05:59;38.07;;;23.43;;
7377;SDS011;3730;50.856;12.776;2023-02-11T07:08:25;41.43;;;25.00;;
7377;SDS011;3730;50.856;12.776;2023-02-11T07:10:51;40.30;;;24.27;;
7377;SDS011;3730;50.856;12.776;2023-02-11T07:13:17;38.13;;;23.73;;
7377;SDS011;3730;50.856;12.776;2023-02-11T07:15:42;37.40;;;23.17;;
7377;SDS011;3730;50.856;12.776;2023-02-11T07:18:08;40.07;;;25.10;;
7377;SDS011;3730;50.856;12.776;2023-02-11T07:20:35;38.43;;;25.20;;
7377;SDS011;3730;50.856;12.776;2023-02-11T07:23:02;39.27;;;24.03;;
7377;SDS011;3730;50.856;12.776;2023-02-11T07:25:28;40.83;;;24.03;;
7377;SDS011;3730;50.856;12.776;2023-02-11T07:27:54;38.60;;;24.43;;
7377;SDS011;3730;50.856;12.776;2023-02-11T07:30:20;40.03;;;25.43;;
7377;SDS011;3730;50.856;12.776;2023-02-11T07:32:46;42.90;;;25.37;;
7377;SDS011;3730;50.856;12.776;2023-02-11T07:35:12;39.17;;;25.20;;
7377;SDS011;3730;50.856;12.776;2023-02-11T07:37:39;41.90;;;25.90;;
7377;SDS011;3730;50.856;12.776;2023-02-11T07:40:06;39.00;;;25.67;;
7377;SDS011;3730;50.856;12.776;2023-02-11T07:42:35;42.17;;;26.37;;
7377;SDS011;3730;50.856;12.776;2023-02-11T07:45:01;39.60;;;24.27;;
7377;SDS011;3730;50.856;12.776;2023-02-11T07:47:27;42.70;;;25.43;;
7377;SDS011;3730;50.856;12.776;2023-02-11T07:49:53;39.00;;;26.20;;
7377;SDS011;3730;50.856;12.776;2023-02-11T07:52:19;45.10;;;26.70;;
7377;SDS011;3730;50.856;12.776;2023-02-11T07:54:46;40.00;;;26.43;;
7377;SDS011;3730;50.856;12.776;2023-02-11T07:57:12;42.67;;;26.93;;
7377;SDS011;3730;50.856;12.776;2023-02-11T07:59:38;45.07;;;26.23;;
7377;SDS011;3730;50.856;12.776;2023-02-11T08:02:03;39.50;;;25.07;;
7377;SDS011;3730;50.856;12.776;2023-02-11T08:04:29;42.43;;;25.23;;
7377;SDS011;3730;50.856;12.776;2023-02-11T08:06:55;42.77;;;26.83;;
7377;SDS011;3730;50.856;12.776;2023-02-11T08:09:21;40.37;;;25.73;;
7377;SDS011;3730;50.856;12.776;2023-02-11T08:11:47;40.17;;;26.47;;
7377;SDS011;3730;50.856;12.776;2023-02-11T08:14:13;43.33;;;27.63;;
7377;SDS011;3730;50.856;12.776;2023-02-11T08:16:39;41.13;;;27.00;;
7377;SDS011;3730;50.856;12.776;2023-02-11T08:19:07;50.30;;;28.43;;
7377;SDS011;3730;50.856;12.776;2023-02-11T08:21:37;43.63;;;27.70;;
7377;SDS011;3730;50.856;12.776;2023-02-11T08:24:03;47.57;;;29.17;;
7377;SDS011;3730;50.856;12.776;2023-02-11T08:26:31;46.20;;;28.63;;
7377;SDS011;3730;50.856;12.776;2023-02-11T08:28:59;42.93;;;26.67;;
7377;SDS011;3730;50.856;12.776;2023-02-11T08:31:27;45.40;;;28.13;;
7377;SDS011;3730;50.856;12.776;2023-02-11T08:33:57;44.67;;;27.00;;
7377;SDS011;3730;50.856;12.776;2023-02-11T08:36:24;44.83;;;27.77;;
7377;SDS011;3730;50.856;12.776;2023-02-11T08:38:56;44.30;;;28.00;;
7377;SDS011;3730;50.856;12.776;2023-02-11T08:41:28;45.40;;;27.63;;
7377;SDS011;3730;50.856;12.776;2023-02-11T08:43:53;47.30;;;28.90;;
7377;SDS011;3730;50.856;12.776;2023-02-11T08:46:19;44.77;;;27.73;;
7377;SDS011;3730;50.856;12.776;2023-02-11T08:48:45;44.10;;;27.83;;
7377;SDS011;3730;50.856;12.776;2023-02-11T08:51:13;47.20;;;28.17;;
7377;SDS011;3730;50.856;12.776;2023-02-11T08:53:39;47.37;;;28.13;;
7377;SDS011;3730;50.856;12.776;2023-02-11T08:56:05;44.40;;;27.83;;
7377;SDS011;3730;50.856;12.776;2023-02-11T08:58:31;46.07;;;28.23;;
7377;SDS011;3730;50.856;12.776;2023-02-11T09:00:57;48.07;;;28.27;;
7377;SDS011;3730;50.856;12.776;2023-02-11T09:03:23;48.87;;;28.93;;
7377;SDS011;3730;50.856;12.776;2023-02-11T09:05:49;48.97;;;29.40;;
7377;SDS011;3730;50.856;12.776;2023-02-11T09:08:17;50.97;;;29.93;;
7377;SDS011;3730;50.856;12.776;2023-02-11T09:10:43;48.27;;;28.77;;
7377;SDS011;3730;50.856;12.776;2023-02-11T09:13:09;46.27;;;28.10;;
7377;SDS011;3730;50.856;12.776;2023-02-11T09:15:35;49.50;;;29.17;;
7377;SDS011;3730;50.856;12.776;2023-02-11T09:18:01;45.50;;;27.93;;
7377;SDS011;3730;50.856;12.776;2023-02-11T09:20:27;46.03;;;28.97;;
7377;SDS011;3730;50.856;12.776;2023-02-11T09:22:53;49.20;;;27.63;;
7377;SDS011;3730;50.856;12.776;2023-02-11T09:25:21;43.40;;;27.17;;
7377;SDS011;3730;50.856;12.776;2023-02-11T09:27:47;41.20;;;27.30;;
7377;SDS011;3730;50.856;12.776;2023-02-11T09:30:12;42.20;;;26.27;;
7377;SDS011;3730;50.856;12.776;2023-02-11T09:32:38;44.73;;;27.23;;
7377;SDS011;3730;50.856;12.776;2023-02-11T09:35:04;42.93;;;28.73;;
7377;SDS011;3730;50.856;12.776;2023-02-11T09:37:30;45.77;;;29.00;;
7377;SDS011;3730;50.856;12.776;2023-02-11T09:39:55;46.67;;;29.00;;
7377;SDS011;3730;50.856;12.776;2023-02-11T09:44:59;45.13;;;28.37;;
7377;SDS011;3730;50.856;12.776;2023-02-11T09:50:06;42.27;;;27.70;;
7377;SDS011;3730;50.856;12.776;2023-02-11T09:55:20;44.27;;;27.47;;
7377;SDS011;3730;50.856;12.776;2023-02-11T09:58:06;47.73;;;27.87;;
7377;SDS011;3730;50.856;12.776;2023-02-11T10:00:47;47.60;;;28.77;;
7377;SDS011;3730;50.856;12.776;2023-02-11T10:17:37;52.53;;;28.70;;
7377;SDS011;3730;50.856;12.776;2023-02-11T10:23:04;48.33;;;28.03;;
7377;SDS011;3730;50.856;12.776;2023-02-11T10:25:49;49.00;;;28.77;;
7377;SDS011;3730;50.856;12.776;2023-02-11T10:28:21;50.63;;;28.97;;
7377;SDS011;3730;50.856;12.776;2023-02-11T10:31:01;45.43;;;28.27;;
7377;SDS011;3730;50.856;12.776;2023-02-11T10:36:23;45.30;;;26.37;;
7377;SDS011;3730;50.856;12.776;2023-02-11T10:38:52;48.97;;;29.53;;
7377;SDS011;3730;50.856;12.776;2023-02-11T10:41:37;45.50;;;27.57;;
7377;SDS011;3730;50.856;12.776;2023-02-11T10:44:10;46.57;;;27.87;;
7377;SDS011;3730;50.856;12.776;2023-02-11T10:46:52;45.17;;;27.53;;
7377;SDS011;3730;50.856;12.776;2023-02-11T10:49:33;45.63;;;27.40;;
7377;SDS011;3730;50.856;12.776;2023-02-11T10:54:54;48.60;;;26.43;;
7377;SDS011;3730;50.856;12.776;2023-02-11T10:57:37;43.80;;;26.63;;
7377;SDS011;3730;50.856;12.776;2023-02-11T11:02:41;47.17;;;27.40;;
7377;SDS011;3730;50.856;12.776;2023-02-11T11:05:15;42.27;;;26.03;;
7377;SDS011;3730;50.856;12.776;2023-02-11T11:07:50;39.37;;;26.20;;
7377;SDS011;3730;50.856;12.776;2023-02-11T11:11:00;38.93;;;25.93;;
7377;SDS011;3730;50.856;12.776;2023-02-11T11:16:06;43.73;;;25.43;;
7377;SDS011;3730;50.856;12.776;2023-02-11T11:18:32;44.13;;;26.60;;
7377;SDS011;3730;50.856;12.776;2023-02-11T11:20:59;44.57;;;26.40;;
7377;SDS011;3730;50.856;12.776;2023-02-11T11:23:26;42.30;;;26.67;;
7377;SDS011;3730;50.856;12.776;2023-02-11T11:26:12;42.97;;;26.83;;
7377;SDS011;3730;50.856;12.776;2023-02-11T11:31:18;40.00;;;24.97;;
7377;SDS011;3730;50.856;12.776;2023-02-11T11:33:45;43.07;;;26.80;;
7377;SDS011;3730;50.856;12.776;2023-02-11T11:36:12;44.70;;;25.23;;
7377;SDS011;3730;50.856;12.776;2023-02-11T11:38:51;41.73;;;25.13;;
7377;SDS011;3730;50.856;12.776;2023-02-11T11:41:25;42.97;;;25.67;;
7377;SDS011;3730;50.856;12.776;2023-02-11T11:44:03;41.20;;;24.83;;
7377;SDS011;3730;50.856;12.776;2023-02-11T11:46:36;39.60;;;24.90;;
7377;SDS011;3730;50.856;12.776;2023-02-11T11:49:11;43.37;;;24.43;;
7377;SDS011;3730;50.856;12.776;2023-02-11T11:51:38;43.50;;;26.70;;
7377;SDS011;3730;50.856;12.776;2023-02-11T11:54:07;42.20;;;25.43;;
7377;SDS011;3730;50.856;12.776;2023-02-11T11:56:46;44.90;;;25.33;;
7377;SDS011;3730;50.856;12.776;2023-02-11T11:59:15;41.67;;;25.03;;
7377;SDS011;3730;50.856;12.776;2023-02-11T12:04:19;40.83;;;25.13;;
7377;SDS011;3730;50.856;12.776;2023-02-11T12:14:40;40.17;;;24.83;;
7377;SDS011;3730;50.856;12.776;2023-02-11T12:19:58;42.87;;;26.67;;
7377;SDS011;3730;50.856;12.776;2023-02-11T12:25:03;42.20;;;25.50;;
7377;SDS011;3730;50.856;12.776;2023-02-11T12:35:41;41.33;;;25.17;;
7377;SDS011;3730;50.856;12.776;2023-02-11T12:38:14;41.87;;;25.33;;
7377;SDS011;3730;50.856;12.776;2023-02-11T12:43:36;41.30;;;25.17;;
7377;SDS011;3730;50.856;12.776;2023-02-11T12:58:47;41.57;;;25.70;;
7377;SDS011;3730;50.856;12.776;2023-02-11T13:01:18;38.57;;;23.40;;
7377;SDS011;3730;50.856;12.776;2023-02-11T13:06:17;39.33;;;24.43;;
7377;SDS011;3730;50.856;12.776;2023-02-11T13:08:46;40.67;;;24.93;;
7377;SDS011;3730;50.856;12.776;2023-02-11T13:14:15;40.00;;;25.27;;
7377;SDS011;3730;50.856;12.776;2023-02-11T13:16:44;39.00;;;24.83;;
7377;SDS011;3730;50.856;12.776;2023-02-11T13:24:12;40.27;;;24.23;;
7377;SDS011;3730;50.856;12.776;2023-02-11T13:29:14;36.00;;;23.70;;
7377;SDS011;3730;50.856;12.776;2023-02-11T13:31:41;38.53;;;25.03;;
7377;SDS011;3730;50.856;12.776;2023-02-11T13:34:24;34.77;;;23.60;;
7377;SDS011;3730;50.856;12.776;2023-02-11T13:36:54;36.50;;;24.03;;
7377;SDS011;3730;50.856;12.776;2023-02-11T13:39:20;39.47;;;23.60;;
7377;SDS011;3730;50.856;12.776;2023-02-11T13:41:46;39.40;;;23.87;;
7377;SDS011;3730;50.856;12.776;2023-02-11T13:46:56;37.63;;;24.47;;
7377;SDS011;3730;50.856;12.776;2023-02-11T13:49:24;37.97;;;25.00;;
7377;SDS011;3730;50.856;12.776;2023-02-11T13:51:50;35.67;;;23.57;;
7377;SDS011;3730;50.856;12.776;2023-02-11T13:54:21;36.03;;;23.40;;
7377;SDS011;3730;50.856;12.776;2023-02-11T13:57:15;35.60;;;24.10;;
7377;SDS011;3730;50.856;12.776;2023-02-11T14:10:48;36.33;;;22.53;;
7377;SDS011;3730;50.856;12.776;2023-02-11T14:21:21;34.33;;;22.50;;
7377;SDS011;3730;50.856;12.776;2023-02-11T14:23:48;38.70;;;23.80;;
7377;SDS011;3730;50.856;12.776;2023-02-11T14:28:47;37.23;;;21.97;;
7377;SDS011;3730;50.856;12.776;2023-02-11T14:31:17;36.73;;;23.77;;
7377;SDS011;3730;50.856;12.776;2023-02-11T14:33:49;32.40;;;21.33;;
7377;SDS011;3730;50.856;12.776;2023-02-11T14:41:47;34.33;;;22.73;;
7377;SDS011;3730;50.856;12.776;2023-02-11T14:44:18;35.17;;;22.20;;
7377;SDS011;3730;50.856;12.776;2023-02-11T14:46:45;30.97;;;21.03;;
7377;SDS011;3730;50.856;12.776;2023-02-11T14:49:18;32.87;;;22.03;;
7377;SDS011;3730;50.856;12.776;2023-02-11T14:51:46;33.10;;;21.93;;
7377;SDS011;3730;50.856;12.776;2023-02-11T14:54:16;33.77;;;21.97;;
7377;SDS011;3730;50.856;12.776;2023-02-11T14:56:42;31.03;;;20.90;;
7377;SDS011;3730;50.856;12.776;2023-02-11T14:59:21;32.13;;;20.67;;
7377;SDS011;3730;50.856;12.776;2023-02-11T15:01:48;36.00;;;21.70;;
7377;SDS011;3730;50.856;12.776;2023-02-11T15:04:25;31.20;;;21.33;;
7377;SDS011;3730;50.856;12.776;2023-02-11T15:06:51;31.70;;;20.60;;
7377;SDS011;3730;50.856;12.776;2023-02-11T15:09:18;32.93;;;20.60;;
7377;SDS011;3730;50.856;12.776;2023-02-11T15:11:48;30.40;;;20.87;;
7377;SDS011;3730;50.856;12.776;2023-02-11T15:16:44;30.73;;;20.03;;
7377;SDS011;3730;50.856;12.776;2023-02-11T15:19:54;34.03;;;23.07;;
7377;SDS011;3730;50.856;12.776;2023-02-11T15:22:04;31.90;;;20.93;;
7377;SDS011;3730;50.856;12.776;2023-02-11T15:24:31;34.27;;;20.43;;
7377;SDS011;3730;50.856;12.776;2023-02-11T15:29:25;34.13;;;21.73;;
7377;SDS011;3730;50.856;12.776;2023-02-11T15:34:48;31.70;;;20.77;;
7377;SDS011;3730;50.856;12.776;2023-02-11T15:39:43;33.07;;;21.60;;
7377;SDS011;3730;50.856;12.776;2023-02-11T15:42:19;33.57;;;21.43;;
7377;SDS011;3730;50.856;12.776;2023-02-11T15:44:46;33.37;;;21.57;;
7377;SDS011;3730;50.856;12.776;2023-02-11T15:47:16;33.93;;;21.33;;
7377;SDS011;3730;50.856;12.776;2023-02-11T15:49:43;32.33;;;21.87;;
7377;SDS011;3730;50.856;12.776;2023-02-11T15:52:10;34.73;;;21.77;;
7377;SDS011;3730;50.856;12.776;2023-02-11T15:54:38;32.93;;;21.30;;
7377;SDS011;3730;50.856;12.776;2023-02-11T15:57:05;36.07;;;21.87;;
7377;SDS011;3730;50.856;12.776;2023-02-11T15:59:34;35.17;;;21.10;;
7377;SDS011;3730;50.856;12.776;2023-02-11T16:02:06;34.67;;;21.13;;
7377;SDS011;3730;50.856;12.776;2023-02-11T16:04:33;34.47;;;21.73;;
7377;SDS011;3730;50.856;12.776;2023-02-11T16:06:59;33.67;;;21.67;;
7377;SDS011;3730;50.856;12.776;2023-02-11T16:09:32;31.63;;;20.87;;
7377;SDS011;3730;50.856;12.776;2023-02-11T16:12:00;31.37;;;20.63;;
7377;SDS011;3730;50.856;12.776;2023-02-11T16:14:29;32.43;;;20.83;;
7377;SDS011;3730;50.856;12.776;2023-02-11T16:19:30;31.67;;;20.47;;
7377;SDS011;3730;50.856;12.776;2023-02-11T16:21:57;31.00;;;20.17;;
7377;SDS011;3730;50.856;12.776;2023-02-11T16:24:25;30.50;;;19.43;;
7377;SDS011;3730;50.856;12.776;2023-02-11T16:26:56;30.40;;;19.03;;
7377;SDS011;3730;50.856;12.776;2023-02-11T16:29:27;32.30;;;20.63;;
7377;SDS011;3730;50.856;12.776;2023-02-11T16:32:03;30.33;;;19.70;;
7377;SDS011;3730;50.856;12.776;2023-02-11T16:34:29;31.83;;;20.63;;
7377;SDS011;3730;50.856;12.776;2023-02-11T16:36:55;29.30;;;19.13;;
7377;SDS011;3730;50.856;12.776;2023-02-11T16:39:21;28.53;;;19.43;;
7377;SDS011;3730;50.856;12.776;2023-02-11T16:41:47;32.00;;;20.33;;
7377;SDS011;3730;50.856;12.776;2023-02-11T16:44:17;29.93;;;19.37;;
7377;SDS011;3730;50.856;12.776;2023-02-11T16:46:43;30.63;;;20.70;;
7377;SDS011;3730;50.856;12.776;2023-02-11T16:49:10;31.27;;;19.83;;
7377;SDS011;3730;50.856;12.776;2023-02-11T16:51:38;31.30;;;20.50;;
7377;SDS011;3730;50.856;12.776;2023-02-11T16:54:04;30.27;;;20.23;;
7377;SDS011;3730;50.856;12.776;2023-02-11T16:56:30;32.90;;;20.53;;
7377;SDS011;3730;50.856;12.776;2023-02-11T16:58:56;33.20;;;20.90;;
7377;SDS011;3730;50.856;12.776;2023-02-11T17:01:22;31.17;;;20.00;;
7377;SDS011;3730;50.856;12.776;2023-02-11T17:03:48;31.67;;;20.17;;
7377;SDS011;3730;50.856;12.776;2023-02-11T17:06:15;31.73;;;20.67;;
7377;SDS011;3730;50.856;12.776;2023-02-11T17:08:41;33.60;;;20.17;;
7377;SDS011;3730;50.856;12.776;2023-02-11T17:11:08;33.20;;;21.13;;
7377;SDS011;3730;50.856;12.776;2023-02-11T17:13:34;32.87;;;22.07;;
7377;SDS011;3730;50.856;12.776;2023-02-11T17:16:00;35.93;;;22.80;;
7377;SDS011;3730;50.856;12.776;2023-02-11T17:18:26;35.90;;;23.53;;
7377;SDS011;3730;50.856;12.776;2023-02-11T17:20:53;39.30;;;23.83;;
7377;SDS011;3730;50.856;12.776;2023-02-11T17:23:19;37.97;;;23.90;;
7377;SDS011;3730;50.856;12.776;2023-02-11T17:25:45;40.17;;;25.10;;